Time;durP1;ratioP1;P1;durP2;ratioP2;P2;SDS_P1;SDS_P2;PMS_P1;PMS_P2;Temp;Humidity;BMP_temperature;BMP_pressure;BME280_temperature;BME280_humidity;BME280_pressure;Samples;Min_cycle;Max_cycle;Signal;HPM_P1;HPM_P2
2022/09/14 00:01:07;;;;;;;7.22;1.58;;;;;;;;;;2551789;54;21048;-84
2022/09/14 00:03:34;;;;;;;5.57;1.58;;;;;;;;;;2312158;58;21049;-83
2022/09/14 00:06:05;;;;;;;8.02;2.25;;;;;;;;;;2311985;58;21080;-84
2022/09/14 00:08:32;;;;;;;8.38;1.62;;;;;;;;;;2551475;53;21033;-84
2022/09/14 00:11:03;;;;;;;4.43;1.55;;;;;;;;;;2312248;58;21037;-84
2022/09/14 00:13:30;;;;;;;3.80;1.20;;;;;;;;;;2551696;54;21584;-84
2022/09/14 00:16:02;;;;;;;10.68;1.95;;;;;;;;;;2551027;54;21493;-84
2022/09/14 00:18:29;;;;;;;6.93;1.75;;;;;;;;;;2312371;58;21040;-84
2022/09/14 00:20:59;;;;;;;8.05;1.73;;;;;;;;;;2551322;54;21037;-84
2022/09/14 00:23:26;;;;;;;4.70;1.10;;;;;;;;;;2551433;54;21100;-84
2022/09/14 00:25:53;;;;;;;7.30;1.58;;;;;;;;;;2311999;58;21053;-84
2022/09/14 00:28:20;;;;;;;6.03;1.75;;;;;;;;;;2312099;58;21120;-84
2022/09/14 00:30:47;;;;;;;6.37;1.50;;;;;;;;;;2551476;54;21580;-84
2022/09/14 00:33:14;;;;;;;5.53;1.45;;;;;;;;;;2551437;54;21043;-84
2022/09/14 00:35:41;;;;;;;6.68;1.60;;;;;;;;;;2312031;58;21120;-84
2022/09/14 00:38:08;;;;;;;9.48;1.92;;;;;;;;;;2551357;53;21052;-84
2022/09/14 00:40:35;;;;;;;3.50;1.40;;;;;;;;;;2551514;54;21040;-84
2022/09/14 00:43:03;;;;;;;5.15;1.95;;;;;;;;;;2551860;54;21096;-84
2022/09/14 00:45:30;;;;;;;7.97;1.35;;;;;;;;;;2551283;54;21092;-84
2022/09/14 00:47:57;;;;;;;5.72;1.45;;;;;;;;;;2551196;53;21033;-84
2022/09/14 00:50:24;;;;;;;9.38;1.67;;;;;;;;;;2551495;54;21044;-84
2022/09/14 00:52:51;;;;;;;4.90;1.30;;;;;;;;;;2551326;54;21640;-84
2022/09/14 00:55:20;;;;;;;6.40;1.85;;;;;;;;;;2312257;58;21053;-84
2022/09/14 00:57:48;;;;;;;6.43;1.83;;;;;;;;;;2311950;58;21108;-84
2022/09/14 01:00:17;;;;;;;8.32;1.73;;;;;;;;;;2551427;54;21109;-84
2022/09/14 01:02:44;;;;;;;3.30;1.20;;;;;;;;;;2312066;58;21188;-84
2022/09/14 01:05:12;;;;;;;7.72;2.03;;;;;;;;;;2312020;58;21092;-84
2022/09/14 01:08:04;;;;;;;7.25;1.70;;;;;;;;;;2551421;53;21048;-84
2022/09/14 01:10:39;;;;;;;3.50;1.45;;;;;;;;;;2551736;54;21069;-84
2022/09/14 01:13:13;;;;;;;8.23;1.90;;;;;;;;;;2552068;54;21036;-84
2022/09/14 01:15:45;;;;;;;4.78;1.85;;;;;;;;;;2551038;54;21048;-84
2022/09/14 01:18:15;;;;;;;6.75;1.45;;;;;;;;;;2311925;58;21109;-84
2022/09/14 01:20:45;;;;;;;4.35;1.10;;;;;;;;;;2551374;54;21033;-83
2022/09/14 01:23:14;;;;;;;7.47;2.00;;;;;;;;;;2312223;58;21565;-84
2022/09/14 01:25:58;;;;;;;5.93;2.03;;;;;;;;;;2551110;54;21096;-84
2022/09/14 01:28:27;;;;;;;5.15;1.52;;;;;;;;;;2615411;52;21065;-84
2022/09/14 01:30:55;;;;;;;8.00;2.12;;;;;;;;;;2652007;52;21034;-84
2022/09/14 01:33:25;;;;;;;6.60;1.80;;;;;;;;;;2393767;56;21034;-84
2022/09/14 01:35:54;;;;;;;9.40;1.42;;;;;;;;;;2393539;56;21110;-83
2022/09/14 01:38:24;;;;;;;8.35;1.75;;;;;;;;;;2394534;56;21046;-84
2022/09/14 01:40:51;;;;;;;3.95;1.30;;;;;;;;;;2651467;52;21571;-84
2022/09/14 01:43:20;;;;;;;7.57;1.58;;;;;;;;;;2651644;52;21026;-84
2022/09/14 01:45:49;;;;;;;6.03;1.70;;;;;;;;;;2651194;52;21098;-84
2022/09/14 01:48:18;;;;;;;6.85;2.25;;;;;;;;;;2394305;56;21039;-84
2022/09/14 01:50:47;;;;;;;8.43;2.33;;;;;;;;;;2394292;56;21022;-84
2022/09/14 01:53:16;;;;;;;7.05;2.12;;;;;;;;;;2651372;52;21018;-84
2022/09/14 01:55:45;;;;;;;7.85;1.80;;;;;;;;;;2651101;52;21483;-84
2022/09/14 01:58:15;;;;;;;9.13;1.87;;;;;;;;;;2651324;51;21033;-83
2022/09/14 02:00:44;;;;;;;4.80;1.80;;;;;;;;;;2651407;52;21097;-84
2022/09/14 02:03:12;;;;;;;7.50;1.67;;;;;;;;;;2394191;56;21066;-83
2022/09/14 02:05:42;;;;;;;4.35;1.55;;;;;;;;;;2393851;56;21038;-84
2022/09/14 02:08:09;;;;;;;6.55;2.15;;;;;;;;;;2651492;51;21034;-84
2022/09/14 02:10:36;;;;;;;7.85;1.70;;;;;;;;;;2651308;52;21006;-84
2022/09/14 02:13:05;;;;;;;5.90;1.83;;;;;;;;;;2651679;52;21018;-84
2022/09/14 02:15:34;;;;;;;7.18;2.30;;;;;;;;;;2651223;52;21113;-83
2022/09/14 02:18:02;;;;;;;2.95;1.50;;;;;;;;;;2651837;51;21026;-83
2022/09/14 02:20:39;;;;;;;6.12;1.80;;;;;;;;;;2651771;52;21086;-84
2022/09/14 02:23:06;;;;;;;8.90;2.17;;;;;;;;;;2394412;56;21141;-83
2022/09/14 02:25:35;;;;;;;6.75;2.00;;;;;;;;;;2651073;52;21083;-84
2022/09/14 02:28:02;;;;;;;5.78;1.95;;;;;;;;;;2651905;51;21018;-83
2022/09/14 02:30:33;;;;;;;7.37;1.98;;;;;;;;;;2651851;52;21562;-84
2022/09/14 02:33:07;;;;;;;5.47;1.80;;;;;;;;;;2394421;56;21022;-84
2022/09/14 02:35:36;;;;;;;10.25;1.75;;;;;;;;;;2651254;52;21157;-84
2022/09/14 02:38:08;;;;;;;9.82;2.17;;;;;;;;;;2651771;51;21033;-83
2022/09/14 02:40:37;;;;;;;5.72;1.80;;;;;;;;;;2394234;56;21479;-84
2022/09/14 02:43:09;;;;;;;10.48;2.00;;;;;;;;;;2394235;56;21034;-84
2022/09/14 02:45:39;;;;;;;5.50;1.60;;;;;;;;;;2651369;52;21030;-84
2022/09/14 02:48:12;;;;;;;9.25;2.15;;;;;;;;;;2651480;51;21713;-84
2022/09/14 02:50:42;;;;;;;6.50;1.80;;;;;;;;;;2651545;52;21026;-83
2022/09/14 02:53:12;;;;;;;6.85;1.70;;;;;;;;;;2394502;56;21029;-83
2022/09/14 02:55:41;;;;;;;8.27;2.65;;;;;;;;;;2651262;52;21077;-83
2022/09/14 02:58:09;;;;;;;7.00;1.77;;;;;;;;;;2651606;51;21037;-84
2022/09/14 03:00:37;;;;;;;9.15;2.45;;;;;;;;;;2651592;52;21018;-83
2022/09/14 03:03:05;;;;;;;5.87;1.70;;;;;;;;;;2652764;52;21096;-83
2022/09/14 03:05:32;;;;;;;4.62;1.87;;;;;;;;;;2651199;52;21037;-84
2022/09/14 03:07:59;;;;;;;6.87;1.70;;;;;;;;;;2651636;51;21030;-84
2022/09/14 03:10:26;;;;;;;7.75;1.92;;;;;;;;;;2651475;52;21080;-84
2022/09/14 03:12:53;;;;;;;5.68;1.70;;;;;;;;;;2651794;52;21101;-84
2022/09/14 03:15:20;;;;;;;5.82;1.60;;;;;;;;;;2651270;52;21021;-84
2022/09/14 03:17:47;;;;;;;9.52;1.85;;;;;;;;;;2651698;51;21077;-84
2022/09/14 03:20:15;;;;;;;8.00;2.12;;;;;;;;;;2651627;52;21479;-84
2022/09/14 03:22:42;;;;;;;9.48;2.12;;;;;;;;;;2651510;52;21018;-83
2022/09/14 03:25:10;;;;;;;6.25;1.77;;;;;;;;;;2651428;52;21019;-84
2022/09/14 03:27:38;;;;;;;5.20;2.33;;;;;;;;;;2393789;56;21025;-83
2022/09/14 03:30:06;;;;;;;8.63;2.00;;;;;;;;;;2394386;56;21022;-84
2022/09/14 03:32:33;;;;;;;9.30;2.42;;;;;;;;;;2394284;56;21098;-84
2022/09/14 03:35:00;;;;;;;7.87;2.05;;;;;;;;;;2394293;56;21523;-84
2022/09/14 03:37:27;;;;;;;6.32;1.42;;;;;;;;;;2393832;56;21082;-84
2022/09/14 03:39:54;;;;;;;12.65;2.70;;;;;;;;;;2394189;56;21024;-83
2022/09/14 03:42:21;;;;;;;8.13;2.08;;;;;;;;;;2651224;52;21169;-83
2022/09/14 03:44:48;;;;;;;6.30;2.12;;;;;;;;;;2393889;56;21062;-83
2022/09/14 03:47:15;;;;;;;10.13;2.37;;;;;;;;;;2651118;51;21101;-84
2022/09/14 03:49:42;;;;;;;6.62;1.60;;;;;;;;;;2651607;52;21085;-84
2022/09/14 03:52:09;;;;;;;7.15;2.08;;;;;;;;;;2394461;56;21033;-83
2022/09/14 03:54:36;;;;;;;7.57;1.90;;;;;;;;;;2651408;52;21069;-84
2022/09/14 03:57:03;;;;;;;4.22;1.90;;;;;;;;;;2650973;51;21063;-84
2022/09/14 03:59:30;;;;;;;6.28;2.10;;;;;;;;;;2394414;56;21026;-84
2022/09/14 04:01:57;;;;;;;5.47;2.00;;;;;;;;;;2394426;56;21038;-83
2022/09/14 04:04:24;;;;;;;6.22;2.10;;;;;;;;;;2651593;52;21030;-84
2022/09/14 04:06:51;;;;;;;9.20;2.10;;;;;;;;;;2651139;51;21014;-84
2022/09/14 04:09:18;;;;;;;8.73;2.28;;;;;;;;;;2651694;52;21487;-84
2022/09/14 04:11:45;;;;;;;9.32;1.80;;;;;;;;;;2651395;52;21013;-84
2022/09/14 04:14:12;;;;;;;9.85;2.20;;;;;;;;;;2394365;56;21470;-84
2022/09/14 04:16:39;;;;;;;7.97;2.10;;;;;;;;;;2650958;51;21082;-84
2022/09/14 04:19:06;;;;;;;8.35;2.47;;;;;;;;;;2651468;52;21120;-84
2022/09/14 04:21:33;;;;;;;7.53;2.08;;;;;;;;;;2651471;52;21478;-83
2022/09/14 04:24:00;;;;;;;3.03;1.55;;;;;;;;;;2651513;52;21621;-84
2022/09/14 04:26:28;;;;;;;6.15;2.15;;;;;;;;;;2393831;56;21510;-84
2022/09/14 04:28:56;;;;;;;6.25;2.05;;;;;;;;;;2651304;51;21034;-84
2022/09/14 04:31:23;;;;;;;6.18;1.80;;;;;;;;;;2394361;56;21034;-84
2022/09/14 04:33:50;;;;;;;10.20;2.35;;;;;;;;;;2651592;52;21021;-84
2022/09/14 04:36:18;;;;;;;4.62;1.70;;;;;;;;;;2651208;52;21081;-83
2022/09/14 04:38:45;;;;;;;4.53;1.65;;;;;;;;;;2395206;56;21077;-84
2022/09/14 04:41:14;;;;;;;7.32;2.08;;;;;;;;;;2651293;52;21022;-84
2022/09/14 04:43:41;;;;;;;2.92;1.52;;;;;;;;;;2651291;52;21106;-83
2022/09/14 04:46:10;;;;;;;5.68;1.60;;;;;;;;;;2651337;52;21030;-84
2022/09/14 04:48:37;;;;;;;5.25;1.87;;;;;;;;;;2651545;51;21073;-83
2022/09/14 04:51:05;;;;;;;7.80;2.00;;;;;;;;;;2651710;52;21519;-83
2022/09/14 04:53:33;;;;;;;4.30;1.62;;;;;;;;;;2394312;56;21070;-84
2022/09/14 04:56:01;;;;;;;6.75;1.65;;;;;;;;;;2393849;56;21034;-83
2022/09/14 04:58:28;;;;;;;4.40;1.80;;;;;;;;;;2651530;51;21030;-83
2022/09/14 05:00:55;;;;;;;4.10;1.65;;;;;;;;;;2651771;52;21026;-83
2022/09/14 05:03:22;;;;;;;7.05;2.62;;;;;;;;;;2394023;56;21049;-84
2022/09/14 05:05:49;;;;;;;7.22;2.00;;;;;;;;;;2651337;52;21068;-84
2022/09/14 05:08:16;;;;;;;8.10;2.45;;;;;;;;;;2651683;51;21037;-84
2022/09/14 05:10:43;;;;;;;6.05;1.92;;;;;;;;;;2651588;52;21065;-84
2022/09/14 05:13:10;;;;;;;7.68;2.03;;;;;;;;;;2394200;56;21026;-84
2022/09/14 05:15:37;;;;;;;7.00;1.73;;;;;;;;;;2394099;56;21034;-84
2022/09/14 05:18:04;;;;;;;6.35;2.15;;;;;;;;;;2651529;51;21078;-83
2022/09/14 05:20:31;;;;;;;5.75;2.00;;;;;;;;;;2651557;52;21041;-84
2022/09/14 05:22:58;;;;;;;7.18;2.10;;;;;;;;;;2651655;52;21007;-84
2022/09/14 05:25:26;;;;;;;4.72;2.17;;;;;;;;;;2393863;56;21026;-83
2022/09/14 05:27:53;;;;;;;8.13;2.05;;;;;;;;;;2394092;56;21026;-84
2022/09/14 05:30:20;;;;;;;6.62;2.50;;;;;;;;;;2651507;52;21085;-84
2022/09/14 05:32:47;;;;;;;7.05;2.42;;;;;;;;;;2651433;52;21596;-84
2022/09/14 05:35:14;;;;;;;9.82;2.42;;;;;;;;;;2393927;56;21573;-82
2022/09/14 05:37:41;;;;;;;8.10;2.58;;;;;;;;;;2651340;51;21025;-84
2022/09/14 05:40:09;;;;;;;6.57;2.92;;;;;;;;;;2651539;52;21023;-84
2022/09/14 05:42:36;;;;;;;8.50;2.62;;;;;;;;;;2394113;56;21026;-84
2022/09/14 05:45:03;;;;;;;8.20;2.87;;;;;;;;;;2651345;52;21034;-84
2022/09/14 05:47:30;;;;;;;9.40;3.22;;;;;;;;;;2651019;51;21582;-84
2022/09/14 05:49:58;;;;;;;8.50;2.40;;;;;;;;;;2651523;52;21085;-84
2022/09/14 05:52:25;;;;;;;6.82;2.53;;;;;;;;;;2651877;52;21026;-83
2022/09/14 05:54:52;;;;;;;6.78;2.75;;;;;;;;;;2651651;52;21518;-84
2022/09/14 05:57:19;;;;;;;8.25;2.85;;;;;;;;;;2394116;56;21077;-84
2022/09/14 05:59:45;;;;;;;8.07;2.90;;;;;;;;;;2651550;52;21021;-84
2022/09/14 06:02:12;;;;;;;6.25;3.00;;;;;;;;;;2651937;52;21185;-84
2022/09/14 06:04:40;;;;;;;8.52;3.08;;;;;;;;;;2394413;56;21145;-84
2022/09/14 06:07:07;;;;;;;9.95;3.35;;;;;;;;;;2651258;51;21081;-84
2022/09/14 06:09:34;;;;;;;4.37;2.53;;;;;;;;;;2651918;52;21034;-84
2022/09/14 06:12:01;;;;;;;9.95;2.85;;;;;;;;;;2652197;52;21531;-84
2022/09/14 06:14:28;;;;;;;7.20;2.58;;;;;;;;;;2652067;52;21010;-83
2022/09/14 06:16:55;;;;;;;6.82;2.70;;;;;;;;;;2651290;51;21503;-84
2022/09/14 06:19:22;;;;;;;14.27;3.50;;;;;;;;;;2651576;52;21510;-84
2022/09/14 06:21:49;;;;;;;9.40;2.92;;;;;;;;;;2651290;52;21010;-84
2022/09/14 06:24:15;;;;;;;10.40;2.70;;;;;;;;;;2394162;56;21084;-83
2022/09/14 06:26:42;;;;;;;9.10;2.75;;;;;;;;;;2650996;51;21648;-84
2022/09/14 06:29:09;;;;;;;7.95;2.28;;;;;;;;;;2394230;56;21617;-84
2022/09/14 06:31:37;;;;;;;6.28;2.67;;;;;;;;;;2651708;52;21026;-84
2022/09/14 06:34:04;;;;;;;8.80;2.25;;;;;;;;;;2651583;52;21062;-84
2022/09/14 06:36:31;;;;;;;5.30;2.30;;;;;;;;;;2394018;56;21017;-84
2022/09/14 06:38:59;;;;;;;7.10;2.00;;;;;;;;;;2651528;51;21034;-83
2022/09/14 06:41:29;;;;;;;4.97;2.28;;;;;;;;;;2394319;56;21018;-83
2022/09/14 06:43:56;;;;;;;7.22;2.28;;;;;;;;;;2394510;56;21034;-84
2022/09/14 06:46:23;;;;;;;9.00;2.33;;;;;;;;;;2394089;56;21082;-84
2022/09/14 06:48:51;;;;;;;6.37;2.10;;;;;;;;;;2651633;51;21018;-84
2022/09/14 06:51:19;;;;;;;5.32;1.98;;;;;;;;;;2651651;52;21562;-84
2022/09/14 06:53:47;;;;;;;6.12;2.33;;;;;;;;;;2394396;56;21503;-84
2022/09/14 06:56:14;;;;;;;6.37;2.45;;;;;;;;;;2393935;56;21091;-83
2022/09/14 06:58:41;;;;;;;6.30;1.70;;;;;;;;;;2393686;56;21105;-84
2022/09/14 07:01:10;;;;;;;4.70;1.83;;;;;;;;;;2651911;52;21094;-84
2022/09/14 07:03:38;;;;;;;8.00;2.20;;;;;;;;;;2394231;56;21026;-84
2022/09/14 07:06:06;;;;;;;6.85;2.47;;;;;;;;;;2651371;52;21105;-84
2022/09/14 07:08:34;;;;;;;5.97;2.40;;;;;;;;;;2651749;51;21096;-84
2022/09/14 07:11:01;;;;;;;7.47;2.58;;;;;;;;;;2651773;52;21070;-84
2022/09/14 07:13:28;;;;;;;5.95;1.87;;;;;;;;;;2651707;52;21073;-84
2022/09/14 07:15:55;;;;;;;6.78;2.47;;;;;;;;;;2651578;52;21085;-84
2022/09/14 07:18:22;;;;;;;5.35;2.15;;;;;;;;;;2394752;56;21030;-84
2022/09/14 07:20:49;;;;;;;6.50;1.92;;;;;;;;;;2651904;52;21495;-84
2022/09/14 07:23:16;;;;;;;9.95;2.22;;;;;;;;;;2394433;56;21097;-83
2022/09/14 07:25:43;;;;;;;7.30;2.20;;;;;;;;;;2651231;52;21070;-84
2022/09/14 07:28:10;;;;;;;10.68;2.75;;;;;;;;;;2530353;51;21046;-86
2022/09/14 07:30:37;;;;;;;3.50;1.87;;;;;;;;;;2358129;57;21047;-85
2022/09/14 07:33:04;;;;;;;8.90;2.20;;;;;;;;;;2357883;57;21106;-85
2022/09/14 07:35:31;;;;;;;8.32;2.10;;;;;;;;;;2357292;57;21113;-85
2022/09/14 07:37:58;;;;;;;3.60;1.73;;;;;;;;;;2365709;55;21145;-84
2022/09/14 07:40:25;;;;;;;5.82;1.73;;;;;;;;;;2381524;56;21038;-83
2022/09/14 07:42:53;;;;;;;6.97;2.10;;;;;;;;;;2382105;56;21574;-85
2022/09/14 07:45:20;;;;;;;6.43;2.17;;;;;;;;;;2381527;56;21050;-84
2022/09/14 07:47:47;;;;;;;8.98;2.03;;;;;;;;;;2382164;56;21077;-85
2022/09/14 07:50:14;;;;;;;4.40;1.77;;;;;;;;;;2381679;56;21046;-85
2022/09/14 07:52:41;;;;;;;7.57;2.12;;;;;;;;;;2381685;56;21499;-85
2022/09/14 07:55:11;;;;;;;4.78;1.87;;;;;;;;;;2381505;55;21106;-86
2022/09/14 07:57:38;;;;;;;9.68;1.80;;;;;;;;;;2380612;56;21042;-85
2022/09/14 08:00:08;;;;;;;7.22;2.25;;;;;;;;;;2381139;56;21515;-85
2022/09/14 08:02:35;;;;;;;5.68;1.92;;;;;;;;;;2381050;56;21034;-86
2022/09/14 08:05:01;;;;;;;9.32;2.25;;;;;;;;;;2380818;56;21034;-85
2022/09/14 08:07:28;;;;;;;4.45;2.10;;;;;;;;;;2380744;56;21085;-86
2022/09/14 08:09:56;;;;;;;4.35;1.70;;;;;;;;;;2381345;56;21043;-85
2022/09/14 08:12:23;;;;;;;6.40;1.70;;;;;;;;;;2381810;56;21098;-86
2022/09/14 08:14:51;;;;;;;6.87;2.17;;;;;;;;;;2381517;56;21039;-85
2022/09/14 08:17:21;;;;;;;6.70;1.85;;;;;;;;;;2381380;55;21092;-85
2022/09/14 08:19:48;;;;;;;9.15;2.00;;;;;;;;;;2381903;56;21091;-85
2022/09/14 08:22:15;;;;;;;5.50;1.95;;;;;;;;;;2382351;55;21042;-86
2022/09/14 08:24:42;;;;;;;5.50;1.65;;;;;;;;;;2381943;55;21527;-86
2022/09/14 08:27:10;;;;;;;4.47;1.23;;;;;;;;;;2381523;56;21042;-85
2022/09/14 08:29:37;;;;;;;6.00;1.50;;;;;;;;;;2381886;55;21086;-85
2022/09/14 08:32:04;;;;;;;8.63;1.73;;;;;;;;;;2381484;55;21054;-85
2022/09/14 08:34:31;;;;;;;5.10;1.50;;;;;;;;;;2386481;52;21531;-86
2022/09/14 08:36:58;;;;;;;9.95;1.98;;;;;;;;;;2380951;56;21515;-85
2022/09/14 08:39:25;;;;;;;7.03;1.70;;;;;;;;;;2381718;56;21034;-85
2022/09/14 08:41:53;;;;;;;6.22;1.70;;;;;;;;;;2381767;56;21034;-85
2022/09/14 08:44:22;;;;;;;6.55;1.67;;;;;;;;;;2634414;52;21023;-86
2022/09/14 08:46:51;;;;;;;4.10;1.67;;;;;;;;;;2380478;56;21086;-85
2022/09/14 08:49:21;;;;;;;5.55;1.37;;;;;;;;;;2380383;56;21038;-85
2022/09/14 08:51:50;;;;;;;6.47;1.50;;;;;;;;;;2380840;56;21082;-85
2022/09/14 08:54:17;;;;;;;5.68;1.67;;;;;;;;;;2381111;56;21046;-85
2022/09/14 08:56:46;;;;;;;3.53;1.27;;;;;;;;;;2381177;56;21030;-86
2022/09/14 08:59:30;;;;;;;4.12;1.10;;;;;;;;;;2381087;56;21677;-86
2022/09/14 09:02:00;;;;;;;4.12;1.37;;;;;;;;;;2634550;52;21030;-86
2022/09/14 09:04:36;;;;;;;2.85;1.23;;;;;;;;;;2381495;56;21079;-86
2022/09/14 09:07:08;;;;;;;5.30;1.33;;;;;;;;;;2380601;56;21098;-85
2022/09/14 09:09:39;;;;;;;6.00;1.80;;;;;;;;;;2395497;52;21046;-86
2022/09/14 09:12:07;;;;;;;8.40;1.60;;;;;;;;;;2381913;56;21059;-83
2022/09/14 09:14:35;;;;;;;6.25;1.50;;;;;;;;;;2381383;56;21050;-85
2022/09/14 09:17:05;;;;;;;5.72;1.48;;;;;;;;;;2380573;56;21054;-85
2022/09/14 09:19:34;;;;;;;10.15;2.00;;;;;;;;;;2382914;52;21118;-85
2022/09/14 09:22:03;;;;;;;2.67;1.10;;;;;;;;;;2380921;56;21491;-85
2022/09/14 09:24:32;;;;;;;4.80;1.02;;;;;;;;;;2384235;52;21050;-86
2022/09/14 09:26:59;;;;;;;6.90;1.48;;;;;;;;;;2380502;54;21559;-87
2022/09/14 09:29:26;;;;;;;2.72;1.05;;;;;;;;;;2380660;55;21043;-86
2022/09/14 09:31:55;;;;;;;8.70;1.35;;;;;;;;;;2635281;52;21023;-87
2022/09/14 09:34:24;;;;;;;5.95;1.70;;;;;;;;;;2381612;56;21498;-86
2022/09/14 09:36:51;;;;;;;5.55;1.10;;;;;;;;;;2380351;56;21026;-85
2022/09/14 09:39:19;;;;;;;9.88;2.00;;;;;;;;;;2381759;56;21027;-87
2022/09/14 09:41:49;;;;;;;3.55;1.33;;;;;;;;;;2381790;56;21650;-86
2022/09/14 09:44:16;;;;;;;6.87;2.45;;;;;;;;;;2635112;52;21074;-86
2022/09/14 09:46:46;;;;;;;5.65;1.45;;;;;;;;;;2382584;56;21050;-86
2022/09/14 09:49:18;;;;;;;4.10;1.37;;;;;;;;;;2382716;56;21038;-86
2022/09/14 09:51:45;;;;;;;5.12;1.23;;;;;;;;;;2382321;56;21555;-85
2022/09/14 09:54:22;;;;;;;7.93;1.37;;;;;;;;;;2381853;56;21089;-85
2022/09/14 09:56:52;;;;;;;7.28;1.62;;;;;;;;;;2381195;56;21014;-85
2022/09/14 09:59:26;;;;;;;7.62;2.28;;;;;;;;;;2634623;52;21530;-86
2022/09/14 10:01:54;;;;;;;7.30;1.50;;;;;;;;;;2380758;56;21049;-84
2022/09/14 10:04:22;;;;;;;5.72;1.30;;;;;;;;;;2380729;56;21031;-84
2022/09/14 10:06:50;;;;;;;7.80;1.90;;;;;;;;;;2380034;56;21030;-84
2022/09/14 10:09:18;;;;;;;5.57;1.92;;;;;;;;;;2381390;56;21046;-87
2022/09/14 10:11:46;;;;;;;8.57;2.37;;;;;;;;;;2382453;56;21068;-86
2022/09/14 10:14:24;;;;;;;4.72;1.40;;;;;;;;;;2381998;56;21082;-85
2022/09/14 10:16:51;;;;;;;6.43;2.20;;;;;;;;;;2380861;56;21062;-86
2022/09/14 10:19:20;;;;;;;4.80;1.50;;;;;;;;;;2381799;56;21038;-86
2022/09/14 10:22:18;;;;;;;6.43;1.67;;;;;;;;;;2381838;56;21097;-85
2022/09/14 10:24:56;;;;;;;6.82;1.60;;;;;;;;;;2381693;56;21030;-84
2022/09/14 10:27:31;;;;;;;4.57;1.45;;;;;;;;;;2381953;56;21557;-84
2022/09/14 10:30:00;;;;;;;4.87;1.92;;;;;;;;;;2381788;54;21097;-86
2022/09/14 10:32:28;;;;;;;7.93;1.80;;;;;;;;;;2380962;56;21153;-85
2022/09/14 10:34:56;;;;;;;4.15;1.55;;;;;;;;;;2380483;56;21038;-86
2022/09/14 10:37:28;;;;;;;7.95;1.80;;;;;;;;;;2381044;56;21499;-86
2022/09/14 10:40:03;;;;;;;6.60;2.12;;;;;;;;;;2636238;52;21086;-85
2022/09/14 10:42:32;;;;;;;5.72;1.50;;;;;;;;;;2381113;56;21587;-85
2022/09/14 10:45:04;;;;;;;5.55;1.73;;;;;;;;;;2382083;52;21145;-86
2022/09/14 10:47:53;;;;;;;5.57;1.73;;;;;;;;;;2600786;52;21644;-85
2022/09/14 10:50:27;;;;;;;6.25;1.52;;;;;;;;;;2372404;56;21103;-86
2022/09/14 10:52:59;;;;;;;2.78;1.20;;;;;;;;;;2381552;56;21043;-84
2022/09/14 10:55:33;;;;;;;6.00;1.40;;;;;;;;;;2380787;56;21032;-85
2022/09/14 10:58:06;;;;;;;6.12;1.52;;;;;;;;;;2380964;56;21038;-86
2022/09/14 11:00:37;;;;;;;3.47;1.12;;;;;;;;;;2381208;56;21165;-86
2022/09/14 11:03:19;;;;;;;4.25;1.65;;;;;;;;;;2634484;52;21046;-84
2022/09/14 11:05:50;;;;;;;7.28;1.35;;;;;;;;;;2380653;56;21530;-85
2022/09/14 11:08:19;;;;;;;9.98;2.45;;;;;;;;;;2381917;55;21027;-86
2022/09/14 11:10:53;;;;;;;10.20;1.85;;;;;;;;;;2634738;52;21101;-86
2022/09/14 11:13:27;;;;;;;7.00;1.45;;;;;;;;;;2381312;56;21109;-86
2022/09/14 11:16:09;;;;;;;8.60;2.28;;;;;;;;;;2381107;56;21494;-86
2022/09/14 11:18:40;;;;;;;5.10;1.45;;;;;;;;;;2400095;52;21030;-86
2022/09/14 11:21:10;;;;;;;5.35;1.70;;;;;;;;;;2383276;56;21543;-87
2022/09/14 11:23:43;;;;;;;4.70;1.40;;;;;;;;;;2382063;56;21042;-88
2022/09/14 11:26:13;;;;;;;6.90;1.48;;;;;;;;;;2382831;56;21042;-86
2022/09/14 11:28:42;;;;;;;3.95;1.62;;;;;;;;;;2383683;56;21058;-86
2022/09/14 11:31:12;;;;;;;6.30;1.90;;;;;;;;;;2381786;55;21018;-85
2022/09/14 11:33:41;;;;;;;6.15;1.65;;;;;;;;;;2382553;56;21039;-85
2022/09/14 11:36:09;;;;;;;8.63;1.70;;;;;;;;;;2383213;56;21499;-86
2022/09/14 11:38:41;;;;;;;8.38;1.70;;;;;;;;;;2383756;56;21088;-85
2022/09/14 11:41:13;;;;;;;3.75;1.35;;;;;;;;;;2383739;56;20997;-87
2022/09/14 11:43:42;;;;;;;5.45;1.67;;;;;;;;;;2382798;56;21122;-85
2022/09/14 11:46:11;;;;;;;3.15;1.33;;;;;;;;;;2382731;55;21169;-86
2022/09/14 11:48:40;;;;;;;5.10;1.50;;;;;;;;;;2483652;52;21034;-86
2022/09/14 11:51:09;;;;;;;5.28;1.52;;;;;;;;;;2384484;56;21530;-86
2022/09/14 11:53:36;;;;;;;4.37;1.75;;;;;;;;;;2384070;56;21565;-86
2022/09/14 11:56:04;;;;;;;8.48;2.00;;;;;;;;;;2636750;52;21154;-87
2022/09/14 11:58:31;;;;;;;5.47;1.60;;;;;;;;;;2384692;56;21089;-87
2022/09/14 12:01:05;;;;;;;4.80;1.50;;;;;;;;;;2384008;56;21014;-86
2022/09/14 12:04:07;;;;;;;6.72;1.60;;;;;;;;;;2384108;56;21590;-85
2022/09/14 12:09:41;;;;;;;5.53;1.25;;;;;;;;;;2356450;57;22082;-75
2022/09/14 12:12:28;;;;;;;7.75;1.45;;;;;;;;;;2347899;57;21603;-75
2022/09/14 12:14:59;;;;;;;5.68;1.60;;;;;;;;;;2321139;58;21071;-75
2022/09/14 12:17:27;;;;;;;7.15;2.03;;;;;;;;;;2320449;58;21115;-75
2022/09/14 12:19:57;;;;;;;11.50;2.00;;;;;;;;;;2321188;58;21055;-75
2022/09/14 12:22:30;;;;;;;7.87;2.30;;;;;;;;;;2460033;54;21103;-75
2022/09/14 12:25:05;;;;;;;6.15;1.62;;;;;;;;;;2321360;58;21056;-74
2022/09/14 12:27:35;;;;;;;5.55;1.62;;;;;;;;;;2320369;58;21131;-75
2022/09/14 12:30:02;;;;;;;7.78;1.90;;;;;;;;;;2321102;58;21597;-75
2022/09/14 12:32:40;;;;;;;4.72;1.17;;;;;;;;;;2320779;58;21582;-75
2022/09/14 12:35:24;;;;;;;7.70;1.75;;;;;;;;;;2321138;58;21135;-75
2022/09/14 12:37:51;;;;;;;8.27;1.40;;;;;;;;;;2320775;58;21032;-75
2022/09/14 12:40:27;;;;;;;7.12;1.40;;;;;;;;;;2321313;58;21052;-75
2022/09/14 12:42:54;;;;;;;7.03;1.65;;;;;;;;;;2320833;58;21052;-75
2022/09/14 12:45:39;;;;;;;4.97;1.40;;;;;;;;;;2320654;58;21733;-76
2022/09/14 12:48:08;;;;;;;6.07;1.80;;;;;;;;;;2320790;58;21638;-76
2022/09/14 12:50:35;;;;;;;5.20;1.35;;;;;;;;;;2562904;54;21059;-76
2022/09/14 12:53:15;;;;;;;7.05;2.00;;;;;;;;;;2320792;58;21060;-76
2022/09/14 12:55:44;;;;;;;6.05;1.45;;;;;;;;;;2543701;54;21036;-76
2022/09/14 12:58:17;;;;;;;3.95;1.40;;;;;;;;;;2320874;58;21056;-76
2022/09/14 13:00:52;;;;;;;6.03;1.30;;;;;;;;;;2321169;58;21155;-76
2022/09/14 13:03:25;;;;;;;4.75;1.42;;;;;;;;;;2320826;58;21059;-76
2022/09/14 13:05:52;;;;;;;7.72;1.62;;;;;;;;;;2320529;58;21074;-76
2022/09/14 13:08:22;;;;;;;8.05;1.90;;;;;;;;;;2320818;58;21032;-76
2022/09/14 13:10:50;;;;;;;7.40;2.53;;;;;;;;;;2321033;58;21107;-77
2022/09/14 13:13:19;;;;;;;4.97;1.50;;;;;;;;;;2320724;58;21048;-76
2022/09/14 13:15:50;;;;;;;8.95;1.37;;;;;;;;;;2320606;58;21550;-76
2022/09/14 13:18:27;;;;;;;10.23;2.33;;;;;;;;;;2321004;58;21579;-76
2022/09/14 13:20:55;;;;;;;8.35;1.60;;;;;;;;;;2320201;58;21039;-76
2022/09/14 13:23:30;;;;;;;4.90;1.45;;;;;;;;;;2319909;58;21554;-76
2022/09/14 13:25:57;;;;;;;8.35;1.33;;;;;;;;;;2488968;54;21372;-76
2022/09/14 13:28:26;;;;;;;4.30;1.48;;;;;;;;;;2379054;54;21178;-74
2022/09/14 13:30:54;;;;;;;4.50;1.42;;;;;;;;;;2267188;59;21074;-79
2022/09/14 13:33:21;;;;;;;6.95;1.40;;;;;;;;;;2276022;58;21063;-75
2022/09/14 13:35:49;;;;;;;8.52;1.52;;;;;;;;;;2292311;58;21072;-75
2022/09/14 13:38:18;;;;;;;5.07;1.65;;;;;;;;;;2528059;55;21582;-76
2022/09/14 13:40:45;;;;;;;4.85;1.50;;;;;;;;;;2292845;58;21111;-74
2022/09/14 13:43:13;;;;;;;11.05;1.87;;;;;;;;;;2292436;58;21136;-74
2022/09/14 13:45:41;;;;;;;6.05;1.50;;;;;;;;;;2292324;58;21632;-75
2022/09/14 13:48:08;;;;;;;5.03;1.73;;;;;;;;;;2292701;58;21064;-75
2022/09/14 13:50:35;;;;;;;5.18;1.40;;;;;;;;;;2292685;58;21147;-76
2022/09/14 13:53:02;;;;;;;6.25;1.40;;;;;;;;;;2292588;58;21115;-75
2022/09/14 13:55:29;;;;;;;6.87;1.83;;;;;;;;;;2292367;58;21080;-77
2022/09/14 13:58:14;;;;;;;7.45;1.60;;;;;;;;;;2292794;58;21111;-74
2022/09/14 14:00:49;;;;;;;9.98;2.37;;;;;;;;;;2528420;55;21343;-74
2022/09/14 14:03:22;;;;;;;3.62;1.50;;;;;;;;;;2292445;58;21155;-75
2022/09/14 14:05:49;;;;;;;10.63;2.10;;;;;;;;;;2292479;58;21128;-74
2022/09/14 14:08:24;;;;;;;3.42;1.30;;;;;;;;;;2292703;58;21115;-76
2022/09/14 14:10:53;;;;;;;7.20;1.60;;;;;;;;;;2292889;58;21471;-75
2022/09/14 14:13:24;;;;;;;6.10;1.50;;;;;;;;;;2292619;58;21076;-80
2022/09/14 14:15:52;;;;;;;6.00;1.33;;;;;;;;;;2527785;55;21777;-74
2022/09/14 14:18:38;;;;;;;6.78;1.85;;;;;;;;;;2528146;55;21080;-75
2022/09/14 14:21:13;;;;;;;8.27;1.58;;;;;;;;;;2294112;58;21068;-79
2022/09/14 14:23:41;;;;;;;8.55;1.48;;;;;;;;;;2529335;55;21558;-79
2022/09/14 14:26:09;;;;;;;7.70;1.75;;;;;;;;;;2293286;58;21072;-78
2022/09/14 14:28:36;;;;;;;7.05;1.75;;;;;;;;;;2529438;55;21566;-77
2022/09/14 14:31:06;;;;;;;6.00;1.75;;;;;;;;;;2293845;58;21075;-79
2022/09/14 14:33:34;;;;;;;5.53;1.65;;;;;;;;;;2293973;58;21068;-78
2022/09/14 14:36:08;;;;;;;4.30;1.20;;;;;;;;;;2293020;58;21060;-79
2022/09/14 14:38:35;;;;;;;4.93;1.42;;;;;;;;;;2529366;55;21064;-78
2022/09/14 14:41:03;;;;;;;5.37;1.55;;;;;;;;;;2529135;55;21085;-77
2022/09/14 14:43:30;;;;;;;10.55;1.70;;;;;;;;;;2293624;58;21081;-76
2022/09/14 14:45:59;;;;;;;6.15;1.70;;;;;;;;;;2528504;55;21111;-79
2022/09/14 14:48:26;;;;;;;7.10;1.85;;;;;;;;;;2293583;58;21629;-79
2022/09/14 14:50:54;;;;;;;4.82;1.40;;;;;;;;;;2293485;58;21052;-78
2022/09/14 14:53:22;;;;;;;7.93;1.70;;;;;;;;;;2293777;58;21083;-77
2022/09/14 14:55:49;;;;;;;6.07;1.15;;;;;;;;;;2293191;58;21119;-78
2022/09/14 14:58:17;;;;;;;4.37;1.35;;;;;;;;;;2293760;58;21602;-78